createdAt,value
2019-06-27T00:00:28.460Z,99.55
2019-06-27T00:01:28.441Z,99.99
2019-06-27T00:02:28.422Z,99.65
2019-06-27T00:03:28.410Z,99.99
2019-06-27T00:04:28.396Z,99.84
2019-06-27T00:05:28.379Z,99.99
2019-06-27T00:06:28.366Z,99.74
2019-06-27T00:07:28.351Z,99.89
2019-06-27T00:08:28.337Z,99.41
2019-06-27T00:09:28.322Z,99.84
2019-06-27T00:10:28.308Z,99.94
2019-06-27T00:11:28.447Z,99.69
2019-06-27T00:12:28.280Z,99.11
2019-06-27T00:13:28.265Z,99.21
2019-06-27T00:14:28.252Z,99.11
2019-06-27T00:15:28.240Z,99.02
2019-06-27T00:16:28.222Z,98.25
2019-06-27T00:17:28.208Z,98.35
2019-06-27T00:18:28.193Z,99.07
2019-06-27T00:19:28.184Z,98.88
2019-06-27T00:20:28.174Z,99.46
2019-06-27T00:21:28.172Z,99.26
2019-06-27T00:22:28.136Z,99.07
2019-06-27T00:23:28.121Z,99.36
2019-06-27T00:24:28.109Z,98.63
2019-06-27T00:25:28.093Z,98.97
2019-06-27T00:26:28.078Z,98.97
2019-06-27T00:27:28.063Z,98.58
2019-06-27T00:28:28.048Z,98.05
2019-06-27T00:29:28.036Z,98.15
2019-06-27T00:30:28.021Z,98.54
2019-06-27T00:31:28.012Z,98.05
2019-06-27T00:32:27.994Z,98.15
2019-06-27T00:33:27.978Z,98.54
2019-06-27T00:34:27.963Z,98.63
2019-06-27T00:35:27.949Z,97.96
2019-06-27T00:36:27.935Z,98.63
2019-06-27T00:37:27.918Z,98.25
2019-06-27T00:38:30.157Z,98.15
2019-06-27T00:39:27.892Z,97.86
2019-06-27T00:40:27.882Z,97.57
2019-06-27T00:41:27.861Z,98.05
2019-06-27T00:42:27.847Z,97.86
2019-06-27T00:43:27.833Z,97.67
2019-06-27T00:44:27.819Z,97.57
2019-06-27T00:45:27.804Z,97.47
2019-06-27T00:46:27.789Z,97.47
2019-06-27T00:47:27.783Z,97.47
2019-06-27T00:48:27.762Z,96.80
2019-06-27T00:49:27.746Z,97.67
2019-06-27T00:50:27.734Z,97.67
2019-06-27T00:51:27.720Z,97.18
2019-06-27T00:52:27.704Z,96.31
2019-06-27T00:53:27.688Z,96.31
2019-06-27T00:54:27.674Z,96.22
2019-06-27T00:55:27.659Z,95.98
2019-06-27T00:56:27.645Z,96.12
2019-06-27T00:57:27.630Z,96.12
2019-06-27T00:58:27.618Z,96.12
2019-06-27T00:59:27.602Z,96.22
2019-06-27T01:00:27.587Z,96.70
2019-06-27T01:01:27.571Z,96.12
2019-06-27T01:02:27.558Z,96.51
2019-06-27T01:03:27.544Z,97.47
2019-06-27T01:04:27.530Z,96.60
2019-06-27T01:05:28.265Z,96.70
2019-06-27T01:06:27.500Z,96.60
2019-06-27T01:07:27.486Z,96.51
2019-06-27T01:08:27.473Z,96.60
2019-06-27T01:09:27.458Z,96.22
2019-06-27T01:10:27.442Z,96.22
2019-06-27T01:11:27.428Z,96.22
2019-06-27T01:12:27.445Z,96.12
2019-06-27T01:13:27.399Z,95.93
2019-06-27T01:14:27.385Z,96.02
2019-06-27T01:15:27.370Z,95.98
2019-06-27T01:16:27.355Z,95.83
2019-06-27T01:17:27.343Z,95.98
2019-06-27T01:18:27.326Z,95.49
2019-06-27T01:19:27.310Z,95.40
2019-06-27T01:20:27.296Z,95.59
2019-06-27T01:21:27.280Z,95.88
2019-06-27T01:22:27.267Z,95.59
2019-06-27T01:23:27.252Z,95.88
2019-06-27T01:24:27.238Z,95.59
2019-06-27T01:25:27.221Z,95.59
2019-06-27T01:26:27.208Z,95.20
2019-06-27T01:27:30.315Z,95.59
2019-06-27T01:28:27.179Z,95.20
2019-06-27T01:29:27.163Z,95.68
2019-06-27T01:30:27.150Z,94.43
2019-06-27T01:31:27.136Z,94.53
2019-06-27T01:32:27.120Z,94.91
2019-06-27T01:33:27.105Z,94.72
2019-06-27T01:34:27.089Z,94.43
2019-06-27T01:35:27.076Z,94.43
2019-06-27T01:36:27.061Z,94.62
2019-06-27T01:37:27.046Z,94.53
2019-06-27T01:38:27.031Z,95.01
2019-06-27T01:39:27.016Z,95.68
2019-06-27T01:40:27.002Z,95.40
2019-06-27T01:41:26.985Z,95.59
2019-06-27T01:42:26.970Z,95.59
2019-06-27T01:43:26.959Z,94.91
2019-06-27T01:44:26.942Z,94.72
2019-06-27T01:45:26.925Z,94.43
2019-06-27T01:46:26.911Z,94.29
2019-06-27T01:47:26.897Z,94.29
2019-06-27T01:48:26.881Z,93.99
2019-06-27T01:49:26.873Z,94.38
2019-06-27T01:50:26.852Z,93.80
2019-06-27T01:51:26.838Z,94.67
2019-06-27T01:52:29.077Z,94.29
2019-06-27T01:53:26.806Z,94.38
2019-06-27T01:54:26.791Z,94.38
2019-06-27T01:55:26.777Z,94.09
2019-06-27T01:56:26.766Z,93.80
2019-06-27T01:57:26.745Z,93.90
2019-06-27T01:58:26.731Z,93.90
2019-06-27T01:59:26.719Z,93.90
2019-06-27T02:00:26.702Z,94.29
2019-06-27T02:01:26.686Z,93.80
2019-06-27T02:02:26.670Z,94.09
2019-06-27T02:03:26.660Z,93.80
2019-06-27T02:04:26.640Z,94.19
2019-06-27T02:05:26.625Z,94.09
2019-06-27T02:06:26.610Z,94.24
2019-06-27T02:07:26.601Z,94.38
2019-06-27T02:08:26.578Z,94.82
2019-06-27T02:09:26.563Z,94.62
2019-06-27T02:10:26.550Z,94.53
2019-06-27T02:11:26.534Z,94.77
2019-06-27T02:12:26.534Z,94.57
2019-06-27T02:13:26.505Z,95.35
2019-06-27T02:14:26.493Z,95.64
2019-06-27T02:15:26.475Z,95.25
2019-06-27T02:16:26.457Z,95.35
2019-06-27T02:17:26.440Z,94.57
2019-06-27T02:18:26.461Z,94.87
2019-06-27T02:19:26.413Z,94.87
2019-06-27T02:20:26.395Z,94.38
2019-06-27T02:21:26.378Z,94.96
2019-06-27T02:22:26.364Z,94.34
2019-06-27T02:23:26.349Z,93.95
2019-06-27T02:24:26.337Z,94.24
2019-06-27T02:25:27.069Z,93.47
2019-06-27T02:26:26.303Z,93.56
2019-06-27T02:27:26.290Z,94.04
2019-06-27T02:28:26.272Z,93.85
2019-06-27T02:29:26.257Z,94.34
2019-06-27T02:30:26.242Z,94.24
2019-06-27T02:31:26.226Z,93.85
2019-06-27T02:32:26.213Z,94.14
2019-06-27T02:33:26.196Z,94.14
2019-06-27T02:34:26.179Z,94.53
2019-06-27T02:35:26.167Z,93.18
2019-06-27T02:36:26.149Z,92.69
2019-06-27T02:37:26.134Z,92.21
2019-06-27T02:38:26.119Z,91.68
2019-06-27T02:39:26.101Z,91.39
2019-06-27T02:40:26.087Z,91.68
2019-06-27T02:41:26.072Z,91.78
2019-06-27T02:42:26.055Z,92.55
2019-06-27T02:43:26.049Z,93.23
2019-06-27T02:44:26.026Z,93.42
2019-06-27T02:45:26.009Z,94.77
2019-06-27T02:46:25.998Z,95.64
2019-06-27T02:47:25.982Z,95.45
2019-06-27T02:48:25.962Z,95.25
2019-06-27T02:49:25.947Z,95.35
2019-06-27T02:50:25.929Z,95.45
2019-06-27T02:51:25.925Z,95.25
2019-06-27T02:52:25.898Z,95.64
2019-06-27T02:53:25.884Z,94.77
2019-06-27T02:54:25.870Z,94.87
2019-06-27T02:55:25.853Z,94.58
2019-06-27T02:56:25.840Z,94.48
2019-06-27T02:57:25.829Z,94.48
2019-06-27T02:58:31.356Z,94.48
2019-06-27T02:59:25.790Z,93.62
2019-06-27T03:00:25.775Z,93.71
2019-06-27T03:01:25.756Z,92.94
2019-06-27T03:02:25.742Z,93.42
2019-06-27T03:03:25.726Z,92.84
2019-06-27T03:04:25.711Z,93.23
2019-06-27T03:05:25.694Z,93.42
2019-06-27T03:06:25.681Z,91.68
2019-06-27T03:07:25.663Z,92.36
2019-06-27T03:08:25.650Z,91.68
2019-06-27T03:09:25.642Z,91.68
2019-06-27T03:10:25.616Z,91.11
2019-06-27T03:11:25.600Z,91.49
2019-06-27T03:12:25.588Z,91.30
2019-06-27T03:13:25.568Z,91.11
2019-06-27T03:14:25.588Z,90.91
2019-06-27T03:15:25.539Z,90.14
2019-06-27T03:16:25.522Z,90.53
2019-06-27T03:17:25.507Z,90.23
2019-06-27T03:18:26.243Z,90.53
2019-06-27T03:19:25.475Z,90.05
2019-06-27T03:20:25.458Z,90.43
2019-06-27T03:21:25.442Z,90.53
2019-06-27T03:22:25.428Z,90.72
2019-06-27T03:23:25.413Z,90.53
2019-06-27T03:24:25.449Z,90.33
2019-06-27T03:25:25.379Z,90.33
2019-06-27T03:26:25.367Z,90.62
2019-06-27T03:27:25.350Z,90.53
2019-06-27T03:28:25.335Z,91.01
2019-06-27T03:29:25.330Z,90.43
2019-06-27T03:30:25.306Z,90.14
2019-06-27T03:31:25.287Z,90.53
2019-06-27T03:32:25.272Z,90.81
2019-06-27T03:33:25.259Z,91.20
2019-06-27T03:34:25.323Z,91.49
2019-06-27T03:35:25.229Z,91.78
2019-06-27T03:36:25.209Z,91.11
2019-06-27T03:37:25.190Z,91.68
2019-06-27T03:38:25.179Z,91.59
2019-06-27T03:39:25.161Z,91.39
2019-06-27T03:40:25.147Z,91.30
2019-06-27T03:41:25.129Z,91.68
2019-06-27T03:42:25.114Z,92.36
2019-06-27T03:43:25.101Z,91.88
2019-06-27T03:44:25.099Z,91.97
2019-06-27T03:45:25.064Z,91.59
2019-06-27T03:46:25.061Z,91.88
2019-06-27T03:47:25.054Z,91.97
2019-06-27T03:48:25.019Z,92.26
2019-06-27T03:49:25.004Z,92.26
2019-06-27T03:50:24.986Z,92.74
2019-06-27T03:51:24.973Z,92.26
2019-06-27T03:52:24.959Z,92.36
2019-06-27T03:53:24.939Z,92.84
2019-06-27T03:54:24.925Z,93.62
2019-06-27T03:55:25.669Z,94.62
2019-06-27T03:56:24.897Z,94.62
2019-06-27T03:57:24.877Z,95.30
2019-06-27T03:58:24.861Z,94.29
2019-06-27T03:59:24.850Z,94.20
2019-06-27T04:00:24.831Z,93.95
2019-06-27T04:01:24.814Z,93.95
2019-06-27T04:02:24.802Z,95.01
2019-06-27T04:03:24.793Z,93.95
2019-06-27T04:04:24.778Z,93.95
2019-06-27T04:05:24.752Z,94.04
2019-06-27T04:06:24.736Z,94.14
2019-06-27T04:07:24.720Z,93.56
2019-06-27T04:08:24.707Z,93.95
2019-06-27T04:09:24.687Z,93.95
2019-06-27T04:10:24.692Z,94.04
2019-06-27T04:11:24.660Z,93.85
2019-06-27T04:12:24.645Z,93.95
2019-06-27T04:13:24.624Z,93.76
2019-06-27T04:14:24.612Z,93.66
2019-06-27T04:15:24.591Z,93.37
2019-06-27T04:16:24.578Z,92.98
2019-06-27T04:17:24.560Z,93.27
2019-06-27T04:18:24.549Z,92.98
2019-06-27T04:19:24.529Z,92.98
2019-06-27T04:20:24.514Z,93.08
2019-06-27T04:21:24.540Z,92.98
2019-06-27T04:22:28.986Z,93.08
2019-06-27T04:23:24.471Z,93.27
2019-06-27T04:24:24.451Z,93.23
2019-06-27T04:25:24.435Z,92.98
2019-06-27T04:26:24.419Z,92.60
2019-06-27T04:27:24.409Z,92.83
2019-06-27T04:28:25.152Z,92.55
2019-06-27T04:29:33.407Z,92.55
2019-06-27T04:30:24.380Z,92.55
2019-06-27T04:31:24.342Z,92.35
2019-06-27T04:32:24.328Z,92.65
2019-06-27T04:33:24.312Z,92.93
2019-06-27T04:34:24.309Z,92.55
2019-06-27T04:35:24.278Z,93.13
2019-06-27T04:36:24.262Z,93.03
2019-06-27T04:37:24.245Z,92.74
2019-06-27T04:38:24.231Z,93.03
2019-06-27T04:39:24.215Z,92.83
2019-06-27T04:40:24.199Z,93.41
2019-06-27T04:41:24.198Z,93.17
2019-06-27T04:42:24.169Z,93.75
2019-06-27T04:43:24.152Z,93.56
2019-06-27T04:44:24.890Z,93.08
2019-06-27T04:45:24.120Z,94.14
2019-06-27T04:46:24.106Z,93.66
2019-06-27T04:47:24.092Z,94.62
2019-06-27T04:48:24.075Z,94.62
2019-06-27T04:49:24.074Z,94.72
2019-06-27T04:50:24.043Z,94.24
2019-06-27T04:51:24.028Z,93.75
2019-06-27T04:52:24.014Z,93.95
2019-06-27T04:53:23.997Z,93.95
2019-06-27T04:54:23.982Z,93.75
2019-06-27T04:55:24.026Z,94.14
2019-06-27T04:56:23.954Z,93.46
2019-06-27T04:57:23.936Z,93.75
2019-06-27T04:58:23.924Z,93.75
2019-06-27T04:59:23.907Z,94.24
2019-06-27T05:00:23.889Z,93.37
2019-06-27T05:01:23.879Z,94.04
2019-06-27T05:02:23.862Z,93.99
2019-06-27T05:03:23.844Z,93.99
2019-06-27T05:04:23.829Z,94.28
2019-06-27T05:05:23.814Z,93.99
2019-06-27T05:06:23.801Z,94.09
2019-06-27T05:07:23.787Z,93.90
2019-06-27T05:08:23.769Z,93.51
2019-06-27T05:09:23.753Z,93.80
2019-06-27T05:10:23.742Z,93.80
2019-06-27T05:11:23.722Z,94.57
2019-06-27T05:12:23.717Z,94.86
2019-06-27T05:13:23.696Z,94.67
2019-06-27T05:14:23.677Z,95.25
2019-06-27T05:15:23.661Z,94.91
2019-06-27T05:16:23.648Z,95.29
2019-06-27T05:17:23.631Z,95.78
2019-06-27T05:18:23.616Z,95.49
2019-06-27T05:19:23.601Z,95.78
2019-06-27T05:20:23.586Z,95.29
2019-06-27T05:21:24.322Z,95.68
2019-06-27T05:22:23.555Z,94.81
2019-06-27T05:23:23.541Z,95.10
2019-06-27T05:24:23.532Z,95.78
2019-06-27T05:25:23.511Z,95.92
2019-06-27T05:26:23.512Z,95.64
2019-06-27T05:27:23.481Z,95.68
2019-06-27T05:28:23.468Z,96.17
2019-06-27T05:29:23.451Z,95.83
2019-06-27T05:30:23.443Z,96.12
2019-06-27T05:31:23.421Z,96.80
2019-06-27T05:32:23.407Z,97.38
2019-06-27T05:33:23.392Z,96.99
2019-06-27T05:34:23.377Z,97.57
2019-06-27T05:35:23.382Z,98.93
2019-06-27T05:36:23.346Z,99.07
2019-06-27T05:37:23.330Z,98.58
2019-06-27T05:38:23.316Z,99.21
2019-06-27T05:39:23.302Z,98.93
2019-06-27T05:40:23.288Z,99.02
2019-06-27T05:41:23.272Z,99.80
2019-06-27T05:42:23.257Z,99.41
2019-06-27T05:43:23.242Z,99.41
2019-06-27T05:44:23.229Z,99.99
2019-06-27T05:45:23.214Z,99.99
2019-06-27T05:46:23.200Z,99.60
2019-06-27T05:47:23.184Z,99.99
2019-06-27T05:48:23.171Z,99.99
2019-06-27T05:49:23.154Z,99.94
2019-06-27T05:50:23.140Z,99.84
2019-06-27T05:51:23.125Z,99.70
2019-06-27T05:52:23.110Z,99.70
2019-06-27T05:53:23.096Z,99.80
2019-06-27T05:54:23.085Z,99.99
2019-06-27T05:55:23.068Z,99.94
2019-06-27T05:56:23.054Z,99.99
2019-06-27T05:57:23.037Z,99.99
2019-06-27T05:58:23.037Z,99.94
2019-06-27T05:59:23.009Z,99.99
2019-06-27T06:00:29.066Z,99.65
2019-06-27T06:01:22.980Z,99.99
2019-06-27T06:02:22.965Z,99.99
2019-06-27T06:03:22.970Z,99.99
2019-06-27T06:04:24.101Z,99.99
2019-06-27T06:05:22.927Z,99.99
2019-06-27T06:06:22.909Z,99.70
2019-06-27T06:07:25.901Z,99.99
2019-06-27T06:08:22.879Z,99.99
2019-06-27T06:09:22.865Z,99.99
2019-06-27T06:10:22.849Z,99.99
2019-06-27T06:11:22.836Z,99.99
2019-06-27T06:12:22.820Z,99.99
2019-06-27T06:13:22.805Z,99.99
2019-06-27T06:14:22.791Z,99.99
2019-06-27T06:15:22.777Z,99.99
2019-06-27T06:16:22.763Z,99.99
2019-06-27T06:17:22.763Z,99.99
2019-06-27T06:18:22.740Z,99.99
2019-06-27T06:19:22.719Z,99.99
2019-06-27T06:20:22.705Z,99.99
2019-06-27T06:21:22.690Z,99.99
2019-06-27T06:22:22.677Z,99.99
2019-06-27T06:23:22.663Z,99.99
2019-06-27T06:24:23.399Z,99.99
2019-06-27T06:25:22.639Z,99.99
2019-06-27T06:26:22.622Z,99.99
2019-06-27T06:27:22.605Z,99.99
2019-06-27T06:28:22.591Z,99.99
2019-06-27T06:29:22.581Z,99.99
2019-06-27T06:30:22.563Z,99.99
2019-06-27T06:31:22.550Z,99.99
2019-06-27T06:32:22.540Z,99.99
2019-06-27T06:33:22.520Z,99.99
2019-06-27T06:34:22.507Z,99.99
2019-06-27T06:35:22.492Z,99.99
2019-06-27T06:36:22.478Z,99.99
2019-06-27T06:37:22.465Z,99.99
2019-06-27T06:38:22.452Z,99.99
2019-06-27T06:39:22.437Z,99.99
2019-06-27T06:40:22.423Z,99.99
2019-06-27T06:41:22.409Z,99.99
2019-06-27T06:42:22.395Z,99.99
2019-06-27T06:43:22.404Z,99.99
2019-06-27T06:44:22.367Z,99.99
2019-06-27T06:45:22.355Z,99.99
2019-06-27T06:46:22.343Z,99.99
2019-06-27T06:47:22.326Z,99.99
2019-06-27T06:48:22.312Z,99.99
2019-06-27T06:49:22.298Z,99.99
2019-06-27T06:50:23.553Z,99.99
2019-06-27T06:51:22.273Z,99.99
2019-06-27T06:52:22.256Z,99.99
2019-06-27T06:53:22.241Z,99.75
2019-06-27T06:54:22.228Z,99.99
2019-06-27T06:55:22.215Z,99.95
2019-06-27T06:56:22.210Z,99.85
2019-06-27T06:57:22.187Z,99.99
2019-06-27T06:58:22.176Z,99.99
2019-06-27T06:59:22.160Z,99.80
2019-06-27T07:00:22.151Z,99.95
2019-06-27T07:01:22.134Z,99.99
2019-06-27T07:02:22.123Z,99.65
2019-06-27T07:03:22.106Z,99.55
2019-06-27T07:04:22.096Z,99.60
2019-06-27T07:05:22.088Z,99.02
2019-06-27T07:06:22.065Z,98.83
2019-06-27T07:07:22.057Z,99.07
2019-06-27T07:08:22.041Z,99.46
2019-06-27T07:09:22.027Z,99.65
2019-06-27T07:10:22.017Z,99.55
2019-06-27T07:11:22.001Z,99.65
2019-06-27T07:12:21.999Z,98.88
2019-06-27T07:13:21.970Z,98.58
2019-06-27T07:14:21.957Z,99.12
2019-06-27T07:15:21.952Z,98.54
2019-06-27T07:16:21.934Z,97.56
2019-06-27T07:17:21.930Z,97.47
2019-06-27T07:18:21.909Z,98.34
2019-06-27T07:19:21.892Z,98.15
2019-06-27T07:20:21.880Z,98.25
2019-06-27T07:21:21.878Z,97.66
2019-06-27T07:22:21.851Z,98.15
2019-06-27T07:23:21.837Z,97.66
2019-06-27T07:24:21.825Z,98.05
2019-06-27T07:25:21.811Z,98.25
2019-06-27T07:26:22.473Z,97.52
2019-06-27T07:27:21.795Z,97.42
2019-06-27T07:28:21.793Z,97.71
2019-06-27T07:29:21.763Z,97.52
2019-06-27T07:30:21.745Z,97.61
2019-06-27T07:31:21.732Z,97.61
2019-06-27T07:32:21.719Z,97.81
2019-06-27T07:33:23.958Z,97.37
2019-06-27T07:34:21.701Z,99.22
2019-06-27T07:35:21.679Z,98.93
2019-06-27T07:36:21.666Z,98.78
2019-06-27T07:37:21.653Z,99.17
2019-06-27T07:38:21.640Z,98.97
2019-06-27T07:39:22.380Z,98.00
2019-06-27T07:40:21.616Z,97.42
2019-06-27T07:41:21.601Z,97.17
2019-06-27T07:42:21.587Z,97.17
2019-06-27T07:43:21.575Z,97.81
2019-06-27T07:44:21.563Z,97.08
2019-06-27T07:45:21.549Z,97.71
2019-06-27T07:46:25.585Z,97.52
2019-06-27T07:47:21.523Z,97.17
2019-06-27T07:48:21.518Z,97.08
2019-06-27T07:49:21.498Z,97.52
2019-06-27T07:50:21.488Z,97.96
2019-06-27T07:51:21.474Z,97.61
2019-06-27T07:52:21.561Z,97.27
2019-06-27T07:53:21.446Z,97.08
2019-06-27T07:54:21.434Z,97.27
2019-06-27T07:55:21.424Z,97.37
2019-06-27T07:56:21.409Z,96.54
2019-06-27T07:57:21.399Z,96.64
2019-06-27T07:58:21.383Z,97.03
2019-06-27T07:59:21.369Z,97.03
2019-06-27T08:00:21.359Z,96.54
2019-06-27T08:01:34.390Z,96.69
2019-06-27T08:02:21.333Z,95.96
2019-06-27T08:03:21.323Z,96.49
2019-06-27T08:04:21.335Z,96.34
2019-06-27T08:05:21.302Z,97.17
2019-06-27T08:06:21.280Z,96.59
2019-06-27T08:07:21.473Z,96.20
2019-06-27T08:08:21.263Z,95.90
2019-06-27T08:09:21.252Z,96.39
2019-06-27T08:10:22.736Z,96.39
2019-06-27T08:11:21.268Z,95.86
2019-06-27T08:12:21.206Z,95.95
2019-06-27T08:13:21.197Z,95.66
2019-06-27T08:14:21.190Z,95.17
2019-06-27T08:15:21.189Z,95.66
2019-06-27T08:16:21.156Z,95.37
2019-06-27T08:17:21.143Z,95.17
2019-06-27T08:18:21.133Z,96.15
2019-06-27T08:19:21.117Z,95.66
2019-06-27T08:20:21.106Z,95.03
2019-06-27T08:21:21.093Z,94.54
2019-06-27T08:22:21.079Z,95.03
2019-06-27T08:23:21.075Z,95.22
2019-06-27T08:24:21.059Z,94.83
2019-06-27T08:25:21.047Z,94.10
2019-06-27T08:26:21.030Z,94.69
2019-06-27T08:27:21.019Z,94.49
2019-06-27T08:28:21.009Z,94.78
2019-06-27T08:29:20.992Z,95.03
2019-06-27T08:30:20.981Z,95.22
2019-06-27T08:31:20.976Z,95.22
2019-06-27T08:32:20.957Z,94.83
2019-06-27T08:33:20.944Z,94.73
2019-06-27T08:34:20.933Z,94.34
2019-06-27T08:35:20.920Z,94.34
2019-06-27T08:36:20.909Z,95.03
2019-06-27T08:37:20.896Z,94.34
2019-06-27T08:38:20.885Z,94.34
2019-06-27T08:39:20.870Z,94.15
2019-06-27T08:40:20.859Z,93.95
2019-06-27T08:41:20.847Z,93.95
2019-06-27T08:42:20.835Z,93.27
2019-06-27T08:43:20.873Z,94.44
2019-06-27T08:44:20.810Z,93.66
2019-06-27T08:45:20.797Z,93.76
2019-06-27T08:46:20.785Z,93.66
2019-06-27T08:47:20.787Z,94.24
2019-06-27T08:48:20.761Z,94.64
2019-06-27T08:49:20.748Z,93.61
2019-06-27T08:50:20.737Z,92.93
2019-06-27T08:51:20.726Z,93.47
2019-06-27T08:52:20.713Z,94.20
2019-06-27T08:53:20.701Z,93.56
2019-06-27T08:54:20.739Z,92.79
2019-06-27T08:55:20.677Z,93.61
2019-06-27T08:56:20.665Z,93.95
2019-06-27T08:57:20.651Z,93.22
2019-06-27T08:58:20.639Z,92.73
2019-06-27T08:59:20.627Z,94.00
2019-06-27T09:00:20.616Z,93.37
2019-06-27T09:01:20.605Z,93.85
2019-06-27T09:02:20.594Z,94.93
2019-06-27T09:03:20.581Z,94.49
2019-06-27T09:04:20.567Z,94.49
2019-06-27T09:05:20.555Z,93.27
2019-06-27T09:06:21.291Z,92.78
2019-06-27T09:07:20.536Z,92.33
2019-06-27T09:08:20.520Z,93.12
2019-06-27T09:09:20.507Z,91.85
2019-06-27T09:10:20.495Z,91.75
2019-06-27T09:11:20.485Z,91.12
2019-06-27T09:12:20.473Z,91.41
2019-06-27T09:13:20.460Z,93.02
2019-06-27T09:14:20.449Z,91.55
2019-06-27T09:15:21.940Z,92.14
2019-06-27T09:16:20.480Z,91.50
2019-06-27T09:17:20.413Z,90.63
2019-06-27T09:18:20.402Z,90.72
2019-06-27T09:19:20.391Z,89.89
2019-06-27T09:20:20.380Z,91.11
2019-06-27T09:21:20.366Z,90.63
2019-06-27T09:22:20.418Z,90.33
2019-06-27T09:23:20.355Z,90.53
2019-06-27T09:24:20.336Z,90.77
2019-06-27T09:25:20.325Z,90.58
2019-06-27T09:26:20.312Z,90.53
2019-06-27T09:27:20.453Z,90.92
2019-06-27T09:28:20.286Z,90.23
2019-06-27T09:29:20.274Z,91.60
2019-06-27T09:30:20.273Z,91.02
2019-06-27T09:31:20.254Z,90.04
2019-06-27T09:32:25.385Z,90.53
2019-06-27T09:33:20.230Z,90.63
2019-06-27T09:34:21.481Z,91.02
2019-06-27T09:35:20.213Z,91.60
2019-06-27T09:36:20.195Z,90.53
2019-06-27T09:37:20.183Z,90.82
2019-06-27T09:38:20.174Z,90.92
2019-06-27T09:39:20.163Z,91.31
2019-06-27T09:40:20.149Z,90.43
2019-06-27T09:41:20.138Z,90.37
2019-06-27T09:42:20.126Z,89.20
2019-06-27T09:43:20.118Z,88.03
2019-06-27T09:44:20.104Z,89.01
2019-06-27T09:45:20.096Z,88.67
2019-06-27T09:46:20.082Z,89.45
2019-06-27T09:47:20.073Z,91.21
2019-06-27T09:48:20.061Z,90.53
2019-06-27T09:49:20.050Z,91.06
2019-06-27T09:50:21.593Z,89.65
2019-06-27T09:51:20.026Z,89.20
2019-06-27T09:52:20.015Z,89.50
2019-06-27T09:53:20.755Z,88.71
2019-06-27T09:54:19.995Z,89.83
2019-06-27T09:55:19.982Z,90.22
2019-06-27T09:56:19.973Z,91.73
2019-06-27T09:57:19.958Z,89.39
2019-06-27T09:58:19.947Z,86.65
2019-06-27T09:59:19.970Z,86.65
2019-06-27T10:00:19.935Z,86.35
2019-06-27T10:01:19.973Z,86.55
2019-06-27T10:02:19.905Z,85.77
2019-06-27T10:03:19.893Z,86.74
2019-06-27T10:04:19.887Z,85.96
2019-06-27T10:05:19.872Z,85.63
2019-06-27T10:06:19.859Z,86.31
2019-06-27T10:07:19.848Z,85.82
2019-06-27T10:08:19.838Z,86.70
2019-06-27T10:09:19.826Z,86.94
2019-06-27T10:10:19.816Z,85.77
2019-06-27T10:11:19.806Z,86.49
2019-06-27T10:12:19.795Z,86.25
2019-06-27T10:13:19.784Z,85.22
2019-06-27T10:14:19.773Z,85.18
2019-06-27T10:15:19.766Z,86.02
2019-06-27T10:16:19.815Z,85.63
2019-06-27T10:17:19.741Z,85.53
2019-06-27T10:18:19.729Z,85.28
2019-06-27T10:19:19.721Z,85.86
2019-06-27T10:20:19.710Z,86.35
2019-06-27T10:21:19.703Z,85.67
2019-06-27T10:22:19.687Z,85.47
2019-06-27T10:23:19.677Z,85.42
2019-06-27T10:24:19.666Z,86.30
2019-06-27T10:25:19.659Z,85.52
2019-06-27T10:26:19.644Z,86.69
2019-06-27T10:27:19.634Z,86.83
2019-06-27T10:28:19.623Z,86.54
2019-06-27T10:29:19.611Z,87.41
2019-06-27T10:30:19.602Z,86.54
2019-06-27T10:31:19.597Z,86.54
2019-06-27T10:32:19.613Z,85.36
2019-06-27T10:33:19.591Z,83.80
2019-06-27T10:34:19.559Z,84.33
2019-06-27T10:35:19.549Z,83.15
2019-06-27T10:36:21.040Z,84.23
2019-06-27T10:37:19.531Z,82.32
2019-06-27T10:38:19.522Z,83.60
2019-06-27T10:39:19.521Z,85.22
2019-06-27T10:40:19.500Z,84.67
2019-06-27T10:41:19.485Z,86.15
2019-06-27T10:42:20.977Z,85.66
2019-06-27T10:43:19.469Z,84.33
2019-06-27T10:44:19.455Z,84.52
2019-06-27T10:45:19.457Z,84.37
2019-06-27T10:46:19.441Z,84.13
2019-06-27T10:47:19.429Z,81.98
2019-06-27T10:48:19.418Z,82.82
2019-06-27T10:49:19.403Z,82.23
2019-06-27T10:50:19.393Z,82.46
2019-06-27T10:51:19.383Z,81.19
2019-06-27T10:52:19.375Z,80.80
2019-06-27T10:53:19.417Z,79.82
2019-06-27T10:54:19.351Z,80.35
2019-06-27T10:55:19.342Z,81.38
2019-06-27T10:56:19.338Z,81.13
2019-06-27T10:57:19.321Z,80.74
2019-06-27T10:58:19.310Z,81.72
2019-06-27T10:59:19.301Z,79.08
2019-06-27T11:00:19.333Z,80.39
2019-06-27T11:01:19.281Z,81.07
2019-06-27T11:02:19.272Z,81.46
2019-06-27T11:03:19.267Z,82.59
2019-06-27T11:04:19.259Z,79.21
2019-06-27T11:05:19.240Z,79.15
2019-06-27T11:06:19.234Z,81.51
2019-06-27T11:07:19.222Z,81.45
2019-06-27T11:08:19.210Z,79.15
2019-06-27T11:09:19.206Z,78.86
2019-06-27T11:10:19.191Z,78.89
2019-06-27T11:11:19.188Z,78.60
2019-06-27T11:12:19.171Z,78.64
2019-06-27T11:13:19.166Z,78.84
2019-06-27T11:14:19.395Z,79.46
2019-06-27T11:15:19.147Z,79.46
2019-06-27T11:16:19.136Z,77.76
2019-06-27T11:17:19.125Z,78.94
2019-06-27T11:18:21.367Z,78.64
2019-06-27T11:19:19.121Z,75.40
2019-06-27T11:20:19.096Z,75.44
2019-06-27T11:21:19.087Z,74.81
2019-06-27T11:22:19.094Z,74.77
2019-06-27T11:23:19.183Z,76.44
2019-06-27T11:24:19.072Z,76.01
2019-06-27T11:25:19.045Z,76.70
2019-06-27T11:26:19.040Z,76.60
2019-06-27T11:27:19.034Z,77.58
2019-06-27T11:28:19.030Z,78.27
2019-06-27T11:29:19.007Z,75.82
2019-06-27T11:30:19.021Z,77.13
2019-06-27T11:31:18.991Z,74.25
2019-06-27T11:32:18.980Z,73.17
2019-06-27T11:33:31.908Z,74.74
2019-06-27T11:34:19.415Z,74.64
2019-06-27T11:35:18.954Z,76.15
2019-06-27T11:36:18.942Z,74.42
2019-06-27T11:37:18.930Z,74.22
2019-06-27T11:38:18.925Z,72.16
2019-06-27T11:39:18.917Z,70.00
2019-06-27T11:40:18.904Z,71.41
2019-06-27T11:41:18.937Z,69.54
2019-06-27T11:42:18.887Z,68.07
2019-06-27T11:43:18.890Z,68.82
2019-06-27T11:44:18.865Z,70.10
2019-06-27T11:45:18.858Z,71.77
2019-06-27T11:46:18.858Z,71.14
2019-06-27T11:47:18.842Z,73.11
2019-06-27T11:48:18.829Z,71.14
2019-06-27T11:49:18.820Z,72.13
2019-06-27T11:50:18.815Z,72.16
2019-06-27T11:51:18.801Z,73.14
2019-06-27T11:52:18.800Z,72.91
2019-06-27T11:53:18.782Z,72.13
2019-06-27T11:54:18.773Z,71.77
2019-06-27T11:55:18.763Z,72.65
2019-06-27T11:56:18.764Z,72.75
2019-06-27T11:57:18.748Z,72.16
2019-06-27T11:58:18.736Z,72.16
2019-06-27T11:59:18.726Z,71.67
2019-06-27T12:00:18.720Z,70.59
2019-06-27T12:01:18.716Z,69.60
2019-06-27T12:02:18.698Z,71.57
2019-06-27T12:03:18.690Z,73.24
2019-06-27T12:04:18.681Z,74.42
2019-06-27T12:05:18.670Z,74.55
2019-06-27T12:06:18.663Z,76.12
2019-06-27T12:07:18.695Z,74.00
2019-06-27T12:08:18.652Z,72.19
2019-06-27T12:09:18.634Z,72.33
2019-06-27T12:10:18.625Z,71.84
2019-06-27T12:11:18.618Z,70.95
2019-06-27T12:12:18.611Z,69.87
2019-06-27T12:13:18.612Z,70.17
2019-06-27T12:14:18.587Z,70.62
2019-06-27T12:15:18.586Z,70.86
2019-06-27T12:16:18.573Z,69.84
2019-06-27T12:17:18.587Z,69.87
2019-06-27T12:18:18.553Z,68.95
2019-06-27T12:19:18.544Z,69.35
2019-06-27T12:20:18.535Z,70.82
2019-06-27T12:21:18.526Z,71.44
2019-06-27T12:22:18.517Z,69.38
2019-06-27T12:23:18.508Z,70.03
2019-06-27T12:24:18.498Z,68.56
2019-06-27T12:25:18.490Z,68.27
2019-06-27T12:26:18.481Z,68.20
2019-06-27T12:27:18.547Z,64.89
2019-06-27T12:28:18.464Z,66.96
2019-06-27T12:29:18.454Z,66.27
2019-06-27T12:30:18.445Z,66.17
2019-06-27T12:31:20.988Z,66.46
2019-06-27T12:32:23.692Z,66.40
2019-06-27T12:33:18.418Z,67.29
2019-06-27T12:34:18.409Z,67.48
2019-06-27T12:35:18.402Z,65.71
2019-06-27T12:36:18.416Z,65.22
2019-06-27T12:37:18.383Z,64.69
2019-06-27T12:38:19.877Z,66.43
2019-06-27T12:39:18.451Z,67.05
2019-06-27T12:40:18.383Z,66.27
2019-06-27T12:41:18.349Z,66.63
2019-06-27T12:42:31.989Z,68.59
2019-06-27T12:43:18.332Z,68.63
2019-06-27T12:44:18.325Z,69.25
2019-06-27T12:45:18.316Z,66.93
2019-06-27T12:46:18.350Z,67.15
2019-06-27T12:47:18.366Z,67.15
2019-06-27T12:48:18.289Z,64.20
2019-06-27T12:49:18.283Z,64.59
2019-06-27T12:50:18.363Z,65.87
2019-06-27T12:51:18.263Z,66.39
2019-06-27T12:52:18.290Z,63.37